Windhoek — 3FWJ3 — position and weather

sailwx.info

Track history (hours):
 
Tides and Currents Weather Stations Pressure Air Temp Water Temp Dewpoint Dewpoint Depression Visibility Wind Speed Wind Dir Waves Ship Positions

Windhoek

Last reported at 2018-Feb-05 18:59 UTC. Time now 2018-Feb-20 09:51 UTC.
Position N 27°46' W 015°21'.
Warning: this ship's position is 14 days out of date.

Length 172 m; draft 8 m.

Type: Ship (hazmat cat B). MMSI: 370431000.

Date/timePositionNaut miles runAvg speedWind from/ knotsBaromVisibWave heightAir tempDewpointWater temp
2018-Feb-05 18:59N 27°46' W 015°21'713.7
2018-Feb-05 18:30N 27°52' W 015°17'714.3
2018-Feb-05 18:00N 27°59' W 015°17'713.3
2018-Feb-05 17:30N 28°04' W 015°21'5 9.3
2018-Feb-05 17:00N 28°08' W 015°25'0 0.2
2018-Feb-05 16:07N 28°08' W 015°25'0 0.0
2018-Feb-05 15:52N 28°08' W 015°25'0 0.0
2018-Feb-05 15:28N 28°08' W 015°25'0 0.0
2018-Feb-05 14:55N 28°08' W 015°25'0 0.0
2018-Feb-05 14:28N 28°08' W 015°25'0 0.0
2018-Feb-05 13:58N 28°08' W 015°25'0 0.0
2018-Feb-05 13:28N 28°08' W 015°25'0 0.0
2018-Feb-05 12:58N 28°08' W 015°25'0 0.0
2018-Feb-05 12:28N 28°08' W 015°25'0 0.0
2018-Feb-05 11:58N 28°08' W 015°25'0 0.0
2018-Feb-05 11:28N 28°08' W 015°25'0 0.0
2018-Feb-05 10:58N 28°08' W 015°25'0 0.0
2018-Feb-05 10:28N 28°08' W 015°25'0 0.0
2018-Feb-05 09:58N 28°08' W 015°25'0 0.0
2018-Feb-05 09:28N 28°08' W 015°25'0 0.0
2018-Feb-05 08:58N 28°08' W 015°25'0 0.0
2018-Feb-05 08:28N 28°08' W 015°25'0 0.0
2018-Feb-05 07:49N 28°08' W 015°25'0 0.2
2018-Feb-05 07:30N 28°08' W 015°25'2 4.2
2018-Feb-05 06:59N 28°07' W 015°23'2 3.9
2018-Feb-05 06:30N 28°09' W 015°22'6 6.3
2018-Feb-05 05:30N 28°14' W 015°19'3 6.2
2018-Feb-05 05:00N 28°17' W 015°17'4 7.9
2018-Feb-05 04:30N 28°21' W 015°15'713.2
2018-Feb-05 04:00N 28°27' W 015°12'713.3
2018-Feb-05 03:30N 28°33' W 015°09'713.3
2018-Feb-05 02:58N 28°39' W 015°06'613.3
2018-Feb-05 02:30N 28°45' W 015°03'61212.3
2018-Feb-03 00:46N 37°57' W 009°48'313.6
2018-Feb-03 00:30N 38°01' W 009°46'713.8
2018-Feb-03 00:00N 38°07' W 009°42'713.8
2018-Feb-02 23:30N 38°13' W 009°38'714.2
2018-Feb-02 23:00N 38°20' W 009°34'713.6
2018-Feb-02 22:30N 38°26' W 009°31'713.6
2018-Feb-02 22:00N 38°32' W 009°27'713.7
2018-Feb-02 21:30N 38°38' W 009°22'713.1
2018-Feb-02 21:00N 38°41' W 009°15'611.5
2018-Feb-02 20:31N 38°42' W 009°08'1 2.1
2018-Feb-02 19:57N 38°43' W 009°07'0 0.0
2018-Feb-02 19:00N 38°43' W 009°07'0 0.0
2018-Feb-02 18:30N 38°43' W 009°07'0 0.0
2018-Feb-02 18:00N 38°43' W 009°07'0 0.0
2018-Feb-02 17:27N 38°43' W 009°07'0 0.0
2018-Feb-02 17:00N 38°43' W 009°07'0 0.0
2018-Feb-02 16:30N 38°43' W 009°07'0 0.0
2018-Feb-02 15:21N 38°43' W 009°07'0 0.0
2018-Feb-02 14:24N 38°43' W 009°07'0 0.0
2018-Feb-02 14:00N 38°43' W 009°07'0 0.0
2018-Feb-02 13:30N 38°43' W 009°07'0 0.0
2018-Feb-02 13:00N 38°43' W 009°07'0 0.0
2018-Feb-02 12:30N 38°43' W 009°07'0 0.0
2018-Feb-02 12:00N 38°43' W 009°07'0 0.0
2018-Feb-02 11:30N 38°43' W 009°07'0 0.0
2018-Feb-02 11:00N 38°43' W 009°07'0 0.0
2018-Feb-02 10:30N 38°43' W 009°07'0 0.0
2018-Feb-02 10:00N 38°43' W 009°07'0 0.0
2018-Feb-02 09:30N 38°43' W 009°07'0 0.0
2018-Feb-02 09:00N 38°43' W 009°07'0 0.0
2018-Feb-02 08:30N 38°43' W 009°07'0 0.0
2018-Feb-02 07:57N 38°43' W 009°07'0 0.0
2018-Feb-02 07:24N 38°43' W 009°07'0 0.0
2018-Feb-02 07:00N 38°43' W 009°07'0 0.0
2018-Feb-02 06:30N 38°43' W 009°07'0 0.0
2018-Feb-02 06:00N 38°43' W 009°07'0 0.0
2018-Feb-02 05:30N 38°43' W 009°07'0 0.0
2018-Feb-02 05:00N 38°43' W 009°07'0 0.0
2018-Feb-02 04:27N 38°43' W 009°07'0 0.0
2018-Feb-02 03:57N 38°43' W 009°07'0 0.0
2018-Feb-02 03:30N 38°43' W 009°07'0 0.0
2018-Feb-02 03:00N 38°43' W 009°07'0 0.0
2018-Feb-02 02:30N 38°43' W 009°07'0 0.0
2018-Feb-02 02:00N 38°43' W 009°07'0 0.0
2018-Feb-02 01:30N 38°43' W 009°07'0 0.0
2018-Feb-02 00:57N 38°43' W 009°07'0 0.0
2018-Feb-02 00:27N 38°43' W 009°07'0 0.0
2018-Feb-02 00:00N 38°43' W 009°07'0 0.0
2018-Feb-01 23:30N 38°43' W 009°07'0 0.0
2018-Feb-01 23:00N 38°43' W 009°07'0 0.0
2018-Feb-01 22:00N 38°43' W 009°07'0 0.0
2018-Feb-01 21:21N 38°43' W 009°07'0 0.0
2018-Feb-01 19:30N 38°43' W 009°07'0 0.0
2018-Feb-01 19:00N 38°43' W 009°07'0 0.0
2018-Feb-01 18:24N 38°43' W 009°07'0 0.0
2018-Feb-01 17:57N 38°43' W 009°07'0 0.0
2018-Feb-01 17:30N 38°43' W 009°07'0 0.0
2018-Feb-01 17:00N 38°43' W 009°07'0 0.0
2018-Feb-01 16:30N 38°43' W 009°07'0 0.0
2018-Feb-01 16:00N 38°43' W 009°07'0 0.0
2018-Feb-01 15:30N 38°43' W 009°07'0 0.0
2018-Feb-01 15:00N 38°43' W 009°07'0 0.0
2018-Feb-01 13:30N 38°43' W 009°07'0 0.0
2018-Feb-01 13:00N 38°43' W 009°07'0 0.0
2018-Feb-01 12:30N 38°43' W 009°07'0 0.0
2018-Feb-01 12:00N 38°43' W 009°07'0 0.0
2018-Feb-01 11:00N 38°43' W 009°07'0 0.0
2018-Feb-01 10:06N 38°43' W 009°07'0 0.0
2018-Feb-01 10:00N 38°43' W 009°07'0 0.0
2018-Feb-01 07:29N 38°43' W 009°07'0 0.2
2018-Feb-01 07:00N 38°43' W 009°07'3 5.3
2018-Feb-01 06:30N 38°41' W 009°10'3 5.9
2018-Feb-01 06:00N 38°41' W 009°13'2 3.3
2018-Feb-01 05:30N 38°41' W 009°16'2 5.0
2018-Feb-01 05:00N 38°40' W 009°19'4 8.4
2018-Feb-01 04:31N 38°37' W 009°22'4 7.6
2018-Feb-01 04:00N 38°35' W 009°27'7 6.5
2018-Feb-01 03:00N 38°34' W 009°35'4 8.2
2018-Feb-01 02:31N 38°33' W 009°40'4 8.2
2018-Feb-01 02:00N 38°33' W 009°45'612.4
2018-Feb-01 01:30N 38°33' W 009°53'612.4
2018-Feb-01 01:00N 38°33' W 010°01'713.2
2018-Feb-01 00:27N 38°40' W 010°05'613.7
2018-Feb-01 00:00N 38°46' W 010°06'1313.1
2018-Jan-31 23:00N 38°59' W 010°03'713.5
2018-Jan-31 22:30N 39°05' W 009°59'6713.8
2018-Jan-31 17:40N 40°06' W 009°22'213.6
2018-Jan-31 17:30N 40°08' W 009°21'813.8
2018-Jan-31 16:53N 40°16' W 009°17'5313.7
2018-Jan-31 13:00N 41°04' W 008°47'612.2
2018-Jan-31 12:30N 41°09' W 008°43'3 5.9
2018-Jan-31 11:59N 41°12' W 008°41'0 0.0
2018-Jan-31 11:29N 41°12' W 008°41'0 0.0
2018-Jan-31 10:59N 41°12' W 008°41'0 0.0
2018-Jan-31 10:29N 41°12' W 008°41'0 0.0
2018-Jan-31 09:59N 41°12' W 008°41'0 0.0
2018-Jan-31 09:29N 41°12' W 008°41'0 0.0
2018-Jan-31 08:59N 41°12' W 008°41'0 0.0
2018-Jan-31 08:26N 41°12' W 008°41'0 0.0
2018-Jan-31 07:59N 41°12' W 008°41'0 0.0
2018-Jan-31 07:29N 41°12' W 008°41'0 0.0
2018-Jan-31 06:59N 41°12' W 008°41'0 0.0
2018-Jan-31 06:26N 41°12' W 008°41'0 0.0
2018-Jan-31 05:59N 41°12' W 008°41'0 0.0
2018-Jan-31 05:26N 41°12' W 008°41'0 0.0
2018-Jan-31 04:59N 41°12' W 008°41'0 0.0
2018-Jan-31 04:26N 41°12' W 008°41'0 0.0
2018-Jan-31 03:59N 41°12' W 008°41'0 0.0
2018-Jan-31 03:29N 41°12' W 008°41'0 0.0
2018-Jan-31 02:59N 41°12' W 008°41'0 0.0
2018-Jan-31 02:23N 41°12' W 008°41'0 0.0
2018-Jan-31 01:59N 41°12' W 008°41'0 0.0
2018-Jan-31 01:29N 41°12' W 008°41'0 0.0
2018-Jan-31 00:59N 41°12' W 008°41'0 0.0
2018-Jan-30 23:56N 41°12' W 008°41'0 0.0
2018-Jan-30 23:29N 41°12' W 008°41'0 0.0
2018-Jan-30 22:56N 41°12' W 008°41'0 0.0
2018-Jan-30 22:29N 41°12' W 008°41'0 0.0
2018-Jan-30 21:29N 41°12' W 008°41'0 0.0
2018-Jan-30 20:41N 41°12' W 008°41'0 0.0
2018-Jan-30 20:26N 41°12' W 008°41'0 0.0
2018-Jan-30 19:50N 41°12' W 008°41'0 0.0
2018-Jan-30 19:29N 41°12' W 008°41'0 0.0
2018-Jan-30 18:56N 41°12' W 008°41'0 0.0
2018-Jan-30 18:29N 41°12' W 008°41'0 0.0
2018-Jan-30 17:59N 41°12' W 008°41'0 0.0
2018-Jan-30 17:29N 41°12' W 008°41'0 0.0
2018-Jan-30 16:59N 41°12' W 008°41'0 0.0
2018-Jan-30 16:26N 41°12' W 008°41'0 0.0
2018-Jan-30 15:59N 41°12' W 008°41'0 0.0
2018-Jan-30 15:26N 41°12' W 008°41'0 0.0
2018-Jan-30 14:59N 41°12' W 008°41'0 0.0
2018-Jan-30 14:29N 41°12' W 008°41'0 0.0
2018-Jan-30 13:29N 41°12' W 008°41'0 0.0
2018-Jan-30 12:59N 41°12' W 008°41'0 0.0
2018-Jan-30 12:29N 41°12' W 008°41'0 0.0
2018-Jan-30 11:59N 41°12' W 008°41'0 0.0
2018-Jan-30 11:26N 41°12' W 008°41'0 0.0
2018-Jan-30 10:29N 41°12' W 008°41'0 0.0
2018-Jan-30 09:26N 41°12' W 008°41'0 0.0
2018-Jan-30 08:59N 41°12' W 008°41'0 0.0
2018-Jan-30 08:29N 41°12' W 008°41'0 0.0
2018-Jan-30 07:59N 41°12' W 008°41'0 0.0
2018-Jan-30 07:29N 41°12' W 008°41'0 0.0
2018-Jan-30 06:59N 41°12' W 008°41'0 0.0
2018-Jan-30 06:29N 41°12' W 008°41'0 0.0
2018-Jan-30 05:59N 41°12' W 008°41'0 0.0
2018-Jan-30 05:29N 41°12' W 008°41'0 0.0
2018-Jan-30 04:59N 41°12' W 008°41'0 0.0
2018-Jan-30 04:29N 41°12' W 008°41'0 0.0
2018-Jan-30 03:59N 41°12' W 008°41'0 0.1
2018-Jan-30 03:29N 41°12' W 008°41'0 0.1
2018-Jan-30 02:59N 41°12' W 008°41'0 0.0
2018-Jan-30 02:29N 41°12' W 008°41'0 0.0
2018-Jan-30 01:59N 41°12' W 008°41'0 0.0
2018-Jan-30 01:29N 41°12' W 008°41'2 3.2
2018-Jan-30 01:00N 41°10' W 008°42'2 4.7
2018-Jan-30 00:30N 41°09' W 008°44'0 0.7
2018-Jan-30 00:00N 41°09' W 008°44'1 1.9
2018-Jan-29 23:30N 41°08' W 008°45'2 3.0
2018-Jan-29 22:59N 41°07' W 008°46'0 0.1
2018-Jan-29 22:23N 41°07' W 008°46'0 0.1
2018-Jan-29 21:59N 41°07' W 008°46'0 0.0
2018-Jan-29 21:29N 41°07' W 008°46'0 0.0
2018-Jan-29 20:59N 41°07' W 008°46'0 0.0
2018-Jan-29 20:29N 41°07' W 008°46'0 0.1
2018-Jan-29 19:59N 41°07' W 008°46'0 0.1
2018-Jan-29 19:29N 41°07' W 008°46'0 0.1
2018-Jan-29 18:59N 41°07' W 008°46'0 0.0
2018-Jan-29 18:29N 41°07' W 008°46'0 0.1
2018-Jan-29 17:56N 41°07' W 008°46'0 0.0
2018-Jan-29 17:29N 41°07' W 008°46'0 0.0
2018-Jan-29 16:56N 41°07' W 008°46'0 0.0
2018-Jan-29 16:29N 41°07' W 008°46'0 0.0
2018-Jan-29 15:59N 41°07' W 008°46'0 0.0
2018-Jan-29 15:26N 41°07' W 008°46'0 0.1
2018-Jan-29 14:59N 41°07' W 008°46'0 0.1
2018-Jan-29 14:29N 41°07' W 008°46'0 0.0
2018-Jan-29 13:59N 41°07' W 008°46'0 0.1
2018-Jan-29 13:29N 41°07' W 008°46'0 0.0
2018-Jan-29 12:59N 41°07' W 008°46'0 0.0
2018-Jan-29 12:29N 41°07' W 008°46'0 0.1
2018-Jan-29 11:59N 41°07' W 008°46'0 0.1
2018-Jan-29 11:20N 41°07' W 008°46'0 0.1
2018-Jan-29 10:59N 41°07' W 008°46'0 0.0
2018-Jan-29 10:29N 41°07' W 008°46'0 0.1
2018-Jan-29 09:59N 41°07' W 008°46'0 0.1
2018-Jan-29 09:29N 41°07' W 008°46'0 0.1
2018-Jan-29 08:59N 41°07' W 008°46'0 0.0
2018-Jan-29 08:29N 41°07' W 008°46'0 0.0
2018-Jan-29 07:59N 41°07' W 008°46'0 0.0
2018-Jan-29 07:29N 41°07' W 008°46'0 0.2
2018-Jan-29 06:59N 41°07' W 008°46'0 0.1
2018-Jan-29 06:29N 41°07' W 008°46'0 0.0
2018-Jan-29 05:59N 41°07' W 008°46'0 0.1
2018-Jan-29 05:26N 41°07' W 008°46'0 0.1
2018-Jan-29 04:59N 41°07' W 008°46'0 0.0
2018-Jan-29 04:29N 41°07' W 008°46'0 0.0
2018-Jan-29 03:59N 41°07' W 008°46'0 0.0
2018-Jan-29 03:29N 41°07' W 008°46'0 0.0
2018-Jan-29 02:59N 41°07' W 008°46'0 0.0
2018-Jan-29 02:29N 41°07' W 008°46'0 0.0
2018-Jan-29 01:59N 41°07' W 008°46'0 0.0
2018-Jan-29 01:29N 41°07' W 008°46'0 0.0
2018-Jan-29 00:59N 41°07' W 008°46'0 0.0
2018-Jan-29 00:29N 41°07' W 008°46'0 0.0
2018-Jan-28 23:56N 41°07' W 008°46'0 0.0
2018-Jan-28 23:29N 41°07' W 008°46'0 0.0
2018-Jan-28 22:59N 41°07' W 008°46'0 0.2
2018-Jan-28 22:29N 41°07' W 008°46'0 0.1
2018-Jan-28 21:59N 41°07' W 008°46'0 0.0
2018-Jan-28 21:29N 41°07' W 008°46'0 0.1
2018-Jan-28 20:59N 41°07' W 008°46'0 0.0
2018-Jan-28 20:29N 41°07' W 008°46'0 0.1
2018-Jan-28 19:56N 41°07' W 008°46'0 0.1
2018-Jan-28 19:29N 41°07' W 008°46'0 0.1
2018-Jan-28 18:59N 41°07' W 008°46'0 0.0
2018-Jan-28 18:29N 41°07' W 008°46'0 0.0
2018-Jan-28 17:59N 41°07' W 008°46'0 0.0
2018-Jan-28 17:29N 41°07' W 008°46'0 0.0
2018-Jan-28 16:59N 41°07' W 008°46'0 0.0
2018-Jan-28 16:29N 41°07' W 008°46'0 0.1
2018-Jan-28 15:59N 41°07' W 008°46'0 0.0
2018-Jan-28 15:26N 41°07' W 008°46'0 0.1
2018-Jan-28 14:56N 41°07' W 008°46'0 0.0
2018-Jan-28 14:29N 41°07' W 008°46'0 0.1
2018-Jan-28 13:59N 41°07' W 008°46'0 0.0
2018-Jan-28 13:29N 41°07' W 008°46'0 0.0
2018-Jan-28 12:59N 41°07' W 008°46'0 0.1
2018-Jan-28 12:20N 41°07' W 008°46'0 0.1
2018-Jan-28 11:59N 41°07' W 008°46'0 0.0
2018-Jan-28 11:20N 41°07' W 008°46'0 0.1
2018-Jan-28 10:56N 41°07' W 008°46'0 0.0
2018-Jan-28 10:29N 41°07' W 008°46'0 0.0
2018-Jan-28 09:56N 41°07' W 008°46'0 0.1
2018-Jan-28 09:26N 41°07' W 008°46'0 0.1
2018-Jan-28 08:59N 41°07' W 008°46'0 0.1
2018-Jan-28 08:26N 41°07' W 008°46'0 0.0
2018-Jan-28 07:53N 41°07' W 008°46'0 0.0
2018-Jan-28 07:29N 41°07' W 008°46'0 0.0
2018-Jan-28 06:59N 41°07' W 008°46'0 0.0
2018-Jan-28 06:29N 41°07' W 008°46'0 0.0
2018-Jan-28 05:59N 41°07' W 008°46'0 0.0
2018-Jan-28 05:29N 41°07' W 008°46'0 0.1
2018-Jan-28 04:53N 41°07' W 008°46'0 0.1
2018-Jan-28 04:29N 41°07' W 008°46'0 0.0
2018-Jan-28 03:53N 41°07' W 008°46'0 0.0
2018-Jan-28 03:29N 41°07' W 008°46'0 0.0
2018-Jan-28 02:59N 41°07' W 008°46'0 0.0
2018-Jan-28 02:26N 41°07' W 008°46'0 0.1
2018-Jan-28 01:59N 41°07' W 008°46'0 0.0
2018-Jan-28 01:29N 41°07' W 008°46'0 0.0
2018-Jan-28 01:00N 41°07' W 008°46'0 0.0
2018-Jan-28 00:30N 41°07' W 008°46'0 0.0
2018-Jan-28 00:00N 41°07' W 008°46'0 0.0
2018-Jan-27 23:30N 41°07' W 008°46'0 0.0
2018-Jan-27 23:00N 41°07' W 008°46'0 0.0
2018-Jan-27 22:30N 41°07' W 008°46'0 0.0
2018-Jan-27 22:00N 41°07' W 008°46'0 0.1
2018-Jan-27 21:30N 41°07' W 008°46'0 0.1
2018-Jan-27 21:00N 41°07' W 008°46'0 0.0
2018-Jan-27 20:30N 41°07' W 008°46'0 0.0
2018-Jan-27 20:00N 41°07' W 008°46'0 0.0
2018-Jan-27 19:30N 41°07' W 008°46'0 0.0
2018-Jan-27 18:59N 41°07' W 008°46'1 2.8
2018-Jan-27 18:30N 41°06' W 008°46'5 9.4
2018-Jan-27 18:00N 41°01' W 008°49'9811.4
2018-Jan-27 09:23N 39°32' W 009°42'511.7
2018-Jan-27 08:57N 39°27' W 009°45'511.6
2018-Jan-27 08:30N 39°23' W 009°48'611.8
2018-Jan-27 08:00N 39°17' W 009°51'611.6
2018-Jan-27 07:30N 39°11' W 009°51'611.5
2018-Jan-27 07:00N 39°06' W 009°51'611.3
2018-Jan-27 06:30N 38°60' W 009°51'511.0
2018-Jan-27 06:00N 38°55' W 009°51'611.2
2018-Jan-27 05:29N 38°49' W 009°51'511.2
2018-Jan-27 05:00N 38°43' W 009°51'510.7
2018-Jan-27 04:30N 38°38' W 009°49'510.5
2018-Jan-27 04:00N 38°33' W 009°48'510.6
2018-Jan-27 03:30N 38°28' W 009°46'510.6
2018-Jan-27 03:00N 38°23' W 009°44'610.7
2018-Jan-27 02:30N 38°18' W 009°42'610.7
2018-Jan-27 01:59N 38°12' W 009°41'511.0
2018-Jan-27 01:30N 38°07' W 009°39'511.0
2018-Jan-27 01:00N 38°02' W 009°38'611.1
2018-Jan-27 00:29N 37°56' W 009°38'611.2
2018-Jan-26 23:59N 37°50' W 009°36'511.2
2018-Jan-26 23:30N 37°45' W 009°34'511.0
2018-Jan-26 23:00N 37°40' W 009°32'610.6
2018-Jan-26 22:29N 37°35' W 009°31'510.9
2018-Jan-26 22:00N 37°29' W 009°29'  
Track history (hours):
 
Tides and Currents Weather Stations Pressure Air Temp Water Temp Dewpoint Dewpoint Depression Visibility Wind Speed Wind Dir Waves Ship Positions

Windhoek

Last reported at 2018-Feb-05 18:59 UTC. Time now 2018-Feb-20 09:51 UTC.
Position N 27°46' W 015°21'.
Warning: this ship's position is 14 days out of date.

Length 172 m; draft 8 m.

Type: Ship (hazmat cat B). MMSI: 370431000.

Date/timePositionNaut miles runAvg speedWind from/ knotsBaromVisibWave heightAir tempDewpointWater temp
2018-Feb-05 18:59N 27°46' W 015°21'713.7
2018-Feb-05 18:30N 27°52' W 015°17'714.3
2018-Feb-05 18:00N 27°59' W 015°17'713.3
2018-Feb-05 17:30N 28°04' W 015°21'5 9.3
2018-Feb-05 17:00N 28°08' W 015°25'0 0.2
2018-Feb-05 16:07N 28°08' W 015°25'0 0.0
2018-Feb-05 15:52N 28°08' W 015°25'0 0.0
2018-Feb-05 15:28N 28°08' W 015°25'0 0.0
2018-Feb-05 14:55N 28°08' W 015°25'0 0.0
2018-Feb-05 14:28N 28°08' W 015°25'0 0.0
2018-Feb-05 13:58N 28°08' W 015°25'0 0.0
2018-Feb-05 13:28N 28°08' W 015°25'0 0.0
2018-Feb-05 12:58N 28°08' W 015°25'0 0.0
2018-Feb-05 12:28N 28°08' W 015°25'0 0.0
2018-Feb-05 11:58N 28°08' W 015°25'0 0.0
2018-Feb-05 11:28N 28°08' W 015°25'0 0.0
2018-Feb-05 10:58N 28°08' W 015°25'0 0.0
2018-Feb-05 10:28N 28°08' W 015°25'0 0.0
2018-Feb-05 09:58N 28°08' W 015°25'0 0.0
2018-Feb-05 09:28N 28°08' W 015°25'0 0.0
2018-Feb-05 08:58N 28°08' W 015°25'0 0.0
2018-Feb-05 08:28N 28°08' W 015°25'0 0.0
2018-Feb-05 07:49N 28°08' W 015°25'0 0.2
2018-Feb-05 07:30N 28°08' W 015°25'2 4.2
2018-Feb-05 06:59N 28°07' W 015°23'2 3.9
2018-Feb-05 06:30N 28°09' W 015°22'6 6.3
2018-Feb-05 05:30N 28°14' W 015°19'3 6.2
2018-Feb-05 05:00N 28°17' W 015°17'4 7.9
2018-Feb-05 04:30N 28°21' W 015°15'713.2
2018-Feb-05 04:00N 28°27' W 015°12'713.3
2018-Feb-05 03:30N 28°33' W 015°09'713.3
2018-Feb-05 02:58N 28°39' W 015°06'613.3
2018-Feb-05 02:30N 28°45' W 015°03'61212.3
2018-Feb-03 00:46N 37°57' W 009°48'313.6
2018-Feb-03 00:30N 38°01' W 009°46'713.8
2018-Feb-03 00:00N 38°07' W 009°42'713.8
2018-Feb-02 23:30N 38°13' W 009°38'714.2
2018-Feb-02 23:00N 38°20' W 009°34'713.6
2018-Feb-02 22:30N 38°26' W 009°31'713.6
2018-Feb-02 22:00N 38°32' W 009°27'713.7
2018-Feb-02 21:30N 38°38' W 009°22'713.1
2018-Feb-02 21:00N 38°41' W 009°15'611.5
2018-Feb-02 20:31N 38°42' W 009°08'1 2.1
2018-Feb-02 19:57N 38°43' W 009°07'0 0.0
2018-Feb-02 19:00N 38°43' W 009°07'0 0.0
2018-Feb-02 18:30N 38°43' W 009°07'0 0.0
2018-Feb-02 18:00N 38°43' W 009°07'0 0.0
2018-Feb-02 17:27N 38°43' W 009°07'0 0.0
2018-Feb-02 17:00N 38°43' W 009°07'0 0.0
2018-Feb-02 16:30N 38°43' W 009°07'0 0.0
2018-Feb-02 15:21N 38°43' W 009°07'0 0.0
2018-Feb-02 14:24N 38°43' W 009°07'0 0.0
2018-Feb-02 14:00N 38°43' W 009°07'0 0.0
2018-Feb-02 13:30N 38°43' W 009°07'0 0.0
2018-Feb-02 13:00N 38°43' W 009°07'0 0.0
2018-Feb-02 12:30N 38°43' W 009°07'0 0.0
2018-Feb-02 12:00N 38°43' W 009°07'0 0.0
2018-Feb-02 11:30N 38°43' W 009°07'0 0.0
2018-Feb-02 11:00N 38°43' W 009°07'0 0.0
2018-Feb-02 10:30N 38°43' W 009°07'0 0.0
2018-Feb-02 10:00N 38°43' W 009°07'0 0.0
2018-Feb-02 09:30N 38°43' W 009°07'0 0.0
2018-Feb-02 09:00N 38°43' W 009°07'0 0.0
2018-Feb-02 08:30N 38°43' W 009°07'0 0.0
2018-Feb-02 07:57N 38°43' W 009°07'0 0.0
2018-Feb-02 07:24N 38°43' W 009°07'0 0.0
2018-Feb-02 07:00N 38°43' W 009°07'0 0.0
2018-Feb-02 06:30N 38°43' W 009°07'0 0.0
2018-Feb-02 06:00N 38°43' W 009°07'0 0.0
2018-Feb-02 05:30N 38°43' W 009°07'0 0.0
2018-Feb-02 05:00N 38°43' W 009°07'0 0.0
2018-Feb-02 04:27N 38°43' W 009°07'0 0.0
2018-Feb-02 03:57N 38°43' W 009°07'0 0.0
2018-Feb-02 03:30N 38°43' W 009°07'0 0.0
2018-Feb-02 03:00N 38°43' W 009°07'0 0.0
2018-Feb-02 02:30N 38°43' W 009°07'0 0.0
2018-Feb-02 02:00N 38°43' W 009°07'0 0.0
2018-Feb-02 01:30N 38°43' W 009°07'0 0.0
2018-Feb-02 00:57N 38°43' W 009°07'0 0.0
2018-Feb-02 00:27N 38°43' W 009°07'0 0.0
2018-Feb-02 00:00N 38°43' W 009°07'0 0.0
2018-Feb-01 23:30N 38°43' W 009°07'0 0.0
2018-Feb-01 23:00N 38°43' W 009°07'0 0.0
2018-Feb-01 22:00N 38°43' W 009°07'0 0.0
2018-Feb-01 21:21N 38°43' W 009°07'0 0.0
2018-Feb-01 19:30N 38°43' W 009°07'0 0.0
2018-Feb-01 19:00N 38°43' W 009°07'0 0.0
2018-Feb-01 18:24N 38°43' W 009°07'0 0.0
2018-Feb-01 17:57N 38°43' W 009°07'0 0.0
2018-Feb-01 17:30N 38°43' W 009°07'0 0.0
2018-Feb-01 17:00N 38°43' W 009°07'0 0.0
2018-Feb-01 16:30N 38°43' W 009°07'0 0.0
2018-Feb-01 16:00N 38°43' W 009°07'0 0.0
2018-Feb-01 15:30N 38°43' W 009°07'0 0.0
2018-Feb-01 15:00N 38°43' W 009°07'0 0.0
2018-Feb-01 13:30N 38°43' W 009°07'0 0.0
2018-Feb-01 13:00N 38°43' W 009°07'0 0.0
2018-Feb-01 12:30N 38°43' W 009°07'0 0.0
2018-Feb-01 12:00N 38°43' W 009°07'0 0.0
2018-Feb-01 11:00N 38°43' W 009°07'0 0.0
2018-Feb-01 10:06N 38°43' W 009°07'0 0.0
2018-Feb-01 10:00N 38°43' W 009°07'0 0.0
2018-Feb-01 07:29N 38°43' W 009°07'0 0.2
2018-Feb-01 07:00N 38°43' W 009°07'3 5.3
2018-Feb-01 06:30N 38°41' W 009°10'3 5.9
2018-Feb-01 06:00N 38°41' W 009°13'2 3.3
2018-Feb-01 05:30N 38°41' W 009°16'2 5.0
2018-Feb-01 05:00N 38°40' W 009°19'4 8.4
2018-Feb-01 04:31N 38°37' W 009°22'4 7.6
2018-Feb-01 04:00N 38°35' W 009°27'7 6.5
2018-Feb-01 03:00N 38°34' W 009°35'4 8.2
2018-Feb-01 02:31N 38°33' W 009°40'4 8.2
2018-Feb-01 02:00N 38°33' W 009°45'612.4
2018-Feb-01 01:30N 38°33' W 009°53'612.4
2018-Feb-01 01:00N 38°33' W 010°01'713.2
2018-Feb-01 00:27N 38°40' W 010°05'613.7
2018-Feb-01 00:00N 38°46' W 010°06'1313.1
2018-Jan-31 23:00N 38°59' W 010°03'713.5
2018-Jan-31 22:30N 39°05' W 009°59'6713.8
2018-Jan-31 17:40N 40°06' W 009°22'213.6
2018-Jan-31 17:30N 40°08' W 009°21'813.8
2018-Jan-31 16:53N 40°16' W 009°17'5313.7
2018-Jan-31 13:00N 41°04' W 008°47'612.2
2018-Jan-31 12:30N 41°09' W 008°43'3 5.9
2018-Jan-31 11:59N 41°12' W 008°41'0 0.0
2018-Jan-31 11:29N 41°12' W 008°41'0 0.0
2018-Jan-31 10:59N 41°12' W 008°41'0 0.0
2018-Jan-31 10:29N 41°12' W 008°41'0 0.0
2018-Jan-31 09:59N 41°12' W 008°41'0 0.0
2018-Jan-31 09:29N 41°12' W 008°41'0 0.0
2018-Jan-31 08:59N 41°12' W 008°41'0 0.0
2018-Jan-31 08:26N 41°12' W 008°41'0 0.0
2018-Jan-31 07:59N 41°12' W 008°41'0 0.0
2018-Jan-31 07:29N 41°12' W 008°41'0 0.0
2018-Jan-31 06:59N 41°12' W 008°41'0 0.0
2018-Jan-31 06:26N 41°12' W 008°41'0 0.0
2018-Jan-31 05:59N 41°12' W 008°41'0 0.0
2018-Jan-31 05:26N 41°12' W 008°41'0 0.0
2018-Jan-31 04:59N 41°12' W 008°41'0 0.0
2018-Jan-31 04:26N 41°12' W 008°41'0 0.0
2018-Jan-31 03:59N 41°12' W 008°41'0 0.0
2018-Jan-31 03:29N 41°12' W 008°41'0 0.0
2018-Jan-31 02:59N 41°12' W 008°41'0 0.0
2018-Jan-31 02:23N 41°12' W 008°41'0 0.0
2018-Jan-31 01:59N 41°12' W 008°41'0 0.0
2018-Jan-31 01:29N 41°12' W 008°41'0 0.0
2018-Jan-31 00:59N 41°12' W 008°41'0 0.0
2018-Jan-30 23:56N 41°12' W 008°41'0 0.0
2018-Jan-30 23:29N 41°12' W 008°41'0 0.0
2018-Jan-30 22:56N 41°12' W 008°41'0 0.0
2018-Jan-30 22:29N 41°12' W 008°41'0 0.0
2018-Jan-30 21:29N 41°12' W 008°41'0 0.0
2018-Jan-30 20:41N 41°12' W 008°41'0 0.0
2018-Jan-30 20:26N 41°12' W 008°41'0 0.0
2018-Jan-30 19:50N 41°12' W 008°41'0 0.0
2018-Jan-30 19:29N 41°12' W 008°41'0 0.0
2018-Jan-30 18:56N 41°12' W 008°41'0 0.0
2018-Jan-30 18:29N 41°12' W 008°41'0 0.0
2018-Jan-30 17:59N 41°12' W 008°41'0 0.0
2018-Jan-30 17:29N 41°12' W 008°41'0 0.0
2018-Jan-30 16:59N 41°12' W 008°41'0 0.0
2018-Jan-30 16:26N 41°12' W 008°41'0 0.0
2018-Jan-30 15:59N 41°12' W 008°41'0 0.0
2018-Jan-30 15:26N 41°12' W 008°41'0 0.0
2018-Jan-30 14:59N 41°12' W 008°41'0 0.0
2018-Jan-30 14:29N 41°12' W 008°41'0 0.0
2018-Jan-30 13:29N 41°12' W 008°41'0 0.0
2018-Jan-30 12:59N 41°12' W 008°41'0 0.0
2018-Jan-30 12:29N 41°12' W 008°41'0 0.0
2018-Jan-30 11:59N 41°12' W 008°41'0 0.0
2018-Jan-30 11:26N 41°12' W 008°41'0 0.0
2018-Jan-30 10:29N 41°12' W 008°41'0 0.0
2018-Jan-30 09:26N 41°12' W 008°41'0 0.0
2018-Jan-30 08:59N 41°12' W 008°41'0 0.0
2018-Jan-30 08:29N 41°12' W 008°41'0 0.0
2018-Jan-30 07:59N 41°12' W 008°41'0 0.0
2018-Jan-30 07:29N 41°12' W 008°41'0 0.0
2018-Jan-30 06:59N 41°12' W 008°41'0 0.0
2018-Jan-30 06:29N 41°12' W 008°41'0 0.0
2018-Jan-30 05:59N 41°12' W 008°41'0 0.0
2018-Jan-30 05:29N 41°12' W 008°41'0 0.0
2018-Jan-30 04:59N 41°12' W 008°41'0 0.0
2018-Jan-30 04:29N 41°12' W 008°41'0 0.0
2018-Jan-30 03:59N 41°12' W 008°41'0 0.1
2018-Jan-30 03:29N 41°12' W 008°41'0 0.1
2018-Jan-30 02:59N 41°12' W 008°41'0 0.0
2018-Jan-30 02:29N 41°12' W 008°41'0 0.0
2018-Jan-30 01:59N 41°12' W 008°41'0 0.0
2018-Jan-30 01:29N 41°12' W 008°41'2 3.2
2018-Jan-30 01:00N 41°10' W 008°42'2 4.7
2018-Jan-30 00:30N 41°09' W 008°44'0 0.7
2018-Jan-30 00:00N 41°09' W 008°44'1 1.9
2018-Jan-29 23:30N 41°08' W 008°45'2 3.0
2018-Jan-29 22:59N 41°07' W 008°46'0 0.1
2018-Jan-29 22:23N 41°07' W 008°46'0 0.1
2018-Jan-29 21:59N 41°07' W 008°46'0 0.0
2018-Jan-29 21:29N 41°07' W 008°46'0 0.0
2018-Jan-29 20:59N 41°07' W 008°46'0 0.0
2018-Jan-29 20:29N 41°07' W 008°46'0 0.1
2018-Jan-29 19:59N 41°07' W 008°46'0 0.1
2018-Jan-29 19:29N 41°07' W 008°46'0 0.1
2018-Jan-29 18:59N 41°07' W 008°46'0 0.0
2018-Jan-29 18:29N 41°07' W 008°46'0 0.1
2018-Jan-29 17:56N 41°07' W 008°46'0 0.0
2018-Jan-29 17:29N 41°07' W 008°46'0 0.0
2018-Jan-29 16:56N 41°07' W 008°46'0 0.0
2018-Jan-29 16:29N 41°07' W 008°46'0 0.0
2018-Jan-29 15:59N 41°07' W 008°46'0 0.0
2018-Jan-29 15:26N 41°07' W 008°46'0 0.1
2018-Jan-29 14:59N 41°07' W 008°46'0 0.1
2018-Jan-29 14:29N 41°07' W 008°46'0 0.0
2018-Jan-29 13:59N 41°07' W 008°46'0 0.1
2018-Jan-29 13:29N 41°07' W 008°46'0 0.0
2018-Jan-29 12:59N 41°07' W 008°46'0 0.0
2018-Jan-29 12:29N 41°07' W 008°46'0 0.1
2018-Jan-29 11:59N 41°07' W 008°46'0 0.1
2018-Jan-29 11:20N 41°07' W 008°46'0 0.1
2018-Jan-29 10:59N 41°07' W 008°46'0 0.0
2018-Jan-29 10:29N 41°07' W 008°46'0 0.1
2018-Jan-29 09:59N 41°07' W 008°46'0 0.1
2018-Jan-29 09:29N 41°07' W 008°46'0 0.1
2018-Jan-29 08:59N 41°07' W 008°46'0 0.0
2018-Jan-29 08:29N 41°07' W 008°46'0 0.0
2018-Jan-29 07:59N 41°07' W 008°46'0 0.0
2018-Jan-29 07:29N 41°07' W 008°46'0 0.2
2018-Jan-29 06:59N 41°07' W 008°46'0 0.1
2018-Jan-29 06:29N 41°07' W 008°46'0 0.0
2018-Jan-29 05:59N 41°07' W 008°46'0 0.1
2018-Jan-29 05:26N 41°07' W 008°46'0 0.1
2018-Jan-29 04:59N 41°07' W 008°46'0 0.0
2018-Jan-29 04:29N 41°07' W 008°46'0 0.0
2018-Jan-29 03:59N 41°07' W 008°46'0 0.0
2018-Jan-29 03:29N 41°07' W 008°46'0 0.0
2018-Jan-29 02:59N 41°07' W 008°46'0 0.0
2018-Jan-29 02:29N 41°07' W 008°46'0 0.0
2018-Jan-29 01:59N 41°07' W 008°46'0 0.0
2018-Jan-29 01:29N 41°07' W 008°46'0 0.0
2018-Jan-29 00:59N 41°07' W 008°46'0 0.0
2018-Jan-29 00:29N 41°07' W 008°46'0 0.0
2018-Jan-28 23:56N 41°07' W 008°46'0 0.0
2018-Jan-28 23:29N 41°07' W 008°46'0 0.0
2018-Jan-28 22:59N 41°07' W 008°46'0 0.2
2018-Jan-28 22:29N 41°07' W 008°46'0 0.1
2018-Jan-28 21:59N 41°07' W 008°46'0 0.0
2018-Jan-28 21:29N 41°07' W 008°46'0 0.1
2018-Jan-28 20:59N 41°07' W 008°46'0 0.0
2018-Jan-28 20:29N 41°07' W 008°46'0 0.1
2018-Jan-28 19:56N 41°07' W 008°46'0 0.1
2018-Jan-28 19:29N 41°07' W 008°46'0 0.1
2018-Jan-28 18:59N 41°07' W 008°46'0 0.0
2018-Jan-28 18:29N 41°07' W 008°46'0 0.0
2018-Jan-28 17:59N 41°07' W 008°46'0 0.0
2018-Jan-28 17:29N 41°07' W 008°46'0 0.0
2018-Jan-28 16:59N 41°07' W 008°46'0 0.0
2018-Jan-28 16:29N 41°07' W 008°46'0 0.1
2018-Jan-28 15:59N 41°07' W 008°46'0 0.0
2018-Jan-28 15:26N 41°07' W 008°46'0 0.1
2018-Jan-28 14:56N 41°07' W 008°46'0 0.0
2018-Jan-28 14:29N 41°07' W 008°46'0 0.1
2018-Jan-28 13:59N 41°07' W 008°46'0 0.0
2018-Jan-28 13:29N 41°07' W 008°46'0 0.0
2018-Jan-28 12:59N 41°07' W 008°46'0 0.1
2018-Jan-28 12:20N 41°07' W 008°46'0 0.1
2018-Jan-28 11:59N 41°07' W 008°46'0 0.0
2018-Jan-28 11:20N 41°07' W 008°46'0 0.1
2018-Jan-28 10:56N 41°07' W 008°46'0 0.0
2018-Jan-28 10:29N 41°07' W 008°46'0 0.0
2018-Jan-28 09:56N 41°07' W 008°46'0 0.1
2018-Jan-28 09:26N 41°07' W 008°46'0 0.1
2018-Jan-28 08:59N 41°07' W 008°46'0 0.1
2018-Jan-28 08:26N 41°07' W 008°46'0 0.0
2018-Jan-28 07:53N 41°07' W 008°46'0 0.0
2018-Jan-28 07:29N 41°07' W 008°46'0 0.0
2018-Jan-28 06:59N 41°07' W 008°46'0 0.0
2018-Jan-28 06:29N 41°07' W 008°46'0 0.0
2018-Jan-28 05:59N 41°07' W 008°46'0 0.0
2018-Jan-28 05:29N 41°07' W 008°46'0 0.1
2018-Jan-28 04:53N 41°07' W 008°46'0 0.1
2018-Jan-28 04:29N 41°07' W 008°46'0 0.0
2018-Jan-28 03:53N 41°07' W 008°46'0 0.0
2018-Jan-28 03:29N 41°07' W 008°46'0 0.0
2018-Jan-28 02:59N 41°07' W 008°46'0 0.0
2018-Jan-28 02:26N 41°07' W 008°46'0 0.1
2018-Jan-28 01:59N 41°07' W 008°46'0 0.0
2018-Jan-28 01:29N 41°07' W 008°46'0 0.0
2018-Jan-28 01:00N 41°07' W 008°46'0 0.0
2018-Jan-28 00:30N 41°07' W 008°46'0 0.0
2018-Jan-28 00:00N 41°07' W 008°46'0 0.0
2018-Jan-27 23:30N 41°07' W 008°46'0 0.0
2018-Jan-27 23:00N 41°07' W 008°46'0 0.0
2018-Jan-27 22:30N 41°07' W 008°46'0 0.0
2018-Jan-27 22:00N 41°07' W 008°46'0 0.1
2018-Jan-27 21:30N 41°07' W 008°46'0 0.1
2018-Jan-27 21:00N 41°07' W 008°46'0 0.0
2018-Jan-27 20:30N 41°07' W 008°46'0 0.0
2018-Jan-27 20:00N 41°07' W 008°46'0 0.0
2018-Jan-27 19:30N 41°07' W 008°46'0 0.0
2018-Jan-27 18:59N 41°07' W 008°46'1 2.8
2018-Jan-27 18:30N 41°06' W 008°46'5 9.4
2018-Jan-27 18:00N 41°01' W 008°49'9811.4
2018-Jan-27 09:23N 39°32' W 009°42'511.7
2018-Jan-27 08:57N 39°27' W 009°45'511.6
2018-Jan-27 08:30N 39°23' W 009°48'611.8
2018-Jan-27 08:00N 39°17' W 009°51'611.6
2018-Jan-27 07:30N 39°11' W 009°51'611.5
2018-Jan-27 07:00N 39°06' W 009°51'611.3
2018-Jan-27 06:30N 38°60' W 009°51'511.0
2018-Jan-27 06:00N 38°55' W 009°51'611.2
2018-Jan-27 05:29N 38°49' W 009°51'511.2
2018-Jan-27 05:00N 38°43' W 009°51'510.7
2018-Jan-27 04:30N 38°38' W 009°49'510.5
2018-Jan-27 04:00N 38°33' W 009°48'510.6
2018-Jan-27 03:30N 38°28' W 009°46'510.6
2018-Jan-27 03:00N 38°23' W 009°44'610.7
2018-Jan-27 02:30N 38°18' W 009°42'610.7
2018-Jan-27 01:59N 38°12' W 009°41'511.0
2018-Jan-27 01:30N 38°07' W 009°39'511.0
2018-Jan-27 01:00N 38°02' W 009°38'611.1
2018-Jan-27 00:29N 37°56' W 009°38'611.2
2018-Jan-26 23:59N 37°50' W 009°36'511.2
2018-Jan-26 23:30N 37°45' W 009°34'511.0
2018-Jan-26 23:00N 37°40' W 009°32'610.6
2018-Jan-26 22:29N 37°35' W 009°31'510.9
2018-Jan-26 22:00N 37°29' W 009°29'  

Dump ship's entire track history